sensor_id;sensor_type;location;lat;lon;timestamp;P1;durP1;ratioP1;P2;durP2;ratioP2
8538;SDS011;4307;53.868;11.680;2023-11-19T00:02:15;12.57;;;8.07;;
8538;SDS011;4307;53.868;11.680;2023-11-19T00:04:43;14.53;;;7.60;;
8538;SDS011;4307;53.868;11.680;2023-11-19T00:07:10;12.10;;;7.33;;
8538;SDS011;4307;53.868;11.680;2023-11-19T00:09:38;13.10;;;7.30;;
8538;SDS011;4307;53.868;11.680;2023-11-19T00:12:06;10.07;;;7.00;;
8538;SDS011;4307;53.868;11.680;2023-11-19T00:14:33;11.47;;;7.33;;
8538;SDS011;4307;53.868;11.680;2023-11-19T00:17:00;10.43;;;7.50;;
8538;SDS011;4307;53.868;11.680;2023-11-19T00:19:28;13.03;;;7.37;;
8538;SDS011;4307;53.868;11.680;2023-11-19T00:21:55;9.93;;;6.60;;
8538;SDS011;4307;53.868;11.680;2023-11-19T00:24:21;11.63;;;6.30;;
8538;SDS011;4307;53.868;11.680;2023-11-19T00:26:48;8.53;;;6.13;;
8538;SDS011;4307;53.868;11.680;2023-11-19T00:29:15;12.10;;;7.20;;
8538;SDS011;4307;53.868;11.680;2023-11-19T00:31:43;9.10;;;6.07;;
8538;SDS011;4307;53.868;11.680;2023-11-19T00:34:10;8.47;;;6.20;;
8538;SDS011;4307;53.868;11.680;2023-11-19T00:36:38;6.90;;;5.43;;
8538;SDS011;4307;53.868;11.680;2023-11-19T00:39:05;11.47;;;6.73;;
8538;SDS011;4307;53.868;11.680;2023-11-19T00:41:31;14.27;;;6.90;;
8538;SDS011;4307;53.868;11.680;2023-11-19T00:43:58;7.43;;;6.13;;
8538;SDS011;4307;53.868;11.680;2023-11-19T00:46:25;9.50;;;6.50;;
8538;SDS011;4307;53.868;11.680;2023-11-19T00:48:51;11.00;;;6.70;;
8538;SDS011;4307;53.868;11.680;2023-11-19T00:51:18;6.10;;;4.63;;
8538;SDS011;4307;53.868;11.680;2023-11-19T00:53:46;10.63;;;6.60;;
8538;SDS011;4307;53.868;11.680;2023-11-19T00:56:13;10.73;;;6.70;;
8538;SDS011;4307;53.868;11.680;2023-11-19T00:58:41;12.47;;;6.27;;
8538;SDS011;4307;53.868;11.680;2023-11-19T01:01:08;10.80;;;6.20;;
8538;SDS011;4307;53.868;11.680;2023-11-19T01:03:34;12.17;;;6.10;;
8538;SDS011;4307;53.868;11.680;2023-11-19T01:06:01;11.87;;;7.70;;
8538;SDS011;4307;53.868;11.680;2023-11-19T01:08:28;8.23;;;6.23;;
8538;SDS011;4307;53.868;11.680;2023-11-19T01:10:56;11.63;;;6.70;;
8538;SDS011;4307;53.868;11.680;2023-11-19T01:13:24;0.00;;;0.00;;
8538;SDS011;4307;53.868;11.680;2023-11-19T01:15:51;0.00;;;0.00;;
8538;SDS011;4307;53.868;11.680;2023-11-19T01:18:18;0.00;;;0.00;;
8538;SDS011;4307;53.868;11.680;2023-11-19T01:20:44;0.00;;;0.00;;
8538;SDS011;4307;53.868;11.680;2023-11-19T01:23:11;0.30;;;0.30;;
8538;SDS011;4307;53.868;11.680;2023-11-19T01:25:38;0.00;;;0.00;;
8538;SDS011;4307;53.868;11.680;2023-11-19T01:28:06;0.00;;;0.00;;
8538;SDS011;4307;53.868;11.680;2023-11-19T01:30:32;0.00;;;0.00;;
8538;SDS011;4307;53.868;11.680;2023-11-19T01:32:59;0.00;;;0.00;;
8538;SDS011;4307;53.868;11.680;2023-11-19T01:35:25;0.00;;;0.00;;
8538;SDS011;4307;53.868;11.680;2023-11-19T01:37:52;0.00;;;0.00;;
8538;SDS011;4307;53.868;11.680;2023-11-19T01:40:20;0.00;;;0.00;;
8538;SDS011;4307;53.868;11.680;2023-11-19T01:42:47;0.00;;;0.00;;
8538;SDS011;4307;53.868;11.680;2023-11-19T01:45:20;0.00;;;0.00;;
8538;SDS011;4307;53.868;11.680;2023-11-19T01:47:52;0.00;;;0.00;;
8538;SDS011;4307;53.868;11.680;2023-11-19T01:50:19;0.00;;;0.00;;
8538;SDS011;4307;53.868;11.680;2023-11-19T01:52:47;0.00;;;0.00;;
8538;SDS011;4307;53.868;11.680;2023-11-19T01:55:14;0.00;;;0.00;;
8538;SDS011;4307;53.868;11.680;2023-11-19T01:57:41;0.00;;;0.00;;
8538;SDS011;4307;53.868;11.680;2023-11-19T02:00:08;0.00;;;0.00;;
8538;SDS011;4307;53.868;11.680;2023-11-19T02:02:38;0.00;;;0.00;;
8538;SDS011;4307;53.868;11.680;2023-11-19T02:05:05;0.00;;;0.00;;
8538;SDS011;4307;53.868;11.680;2023-11-19T02:07:32;0.00;;;0.00;;
8538;SDS011;4307;53.868;11.680;2023-11-19T02:09:59;0.00;;;0.00;;
8538;SDS011;4307;53.868;11.680;2023-11-19T02:12:27;0.00;;;0.00;;
8538;SDS011;4307;53.868;11.680;2023-11-19T02:14:54;0.00;;;0.00;;
8538;SDS011;4307;53.868;11.680;2023-11-19T02:17:27;0.00;;;0.00;;
8538;SDS011;4307;53.868;11.680;2023-11-19T02:19:57;0.00;;;0.00;;
8538;SDS011;4307;53.868;11.680;2023-11-19T02:22:24;0.00;;;0.00;;
8538;SDS011;4307;53.868;11.680;2023-11-19T02:24:51;0.00;;;0.00;;
8538;SDS011;4307;53.868;11.680;2023-11-19T02:27:22;0.00;;;0.00;;
8538;SDS011;4307;53.868;11.680;2023-11-19T02:29:58;0.00;;;0.00;;
8538;SDS011;4307;53.868;11.680;2023-11-19T02:32:27;14.23;;;8.13;;
8538;SDS011;4307;53.868;11.680;2023-11-19T02:34:55;12.10;;;7.13;;
8538;SDS011;4307;53.868;11.680;2023-11-19T02:37:22;14.23;;;9.23;;
8538;SDS011;4307;53.868;11.680;2023-11-19T02:39:49;13.03;;;8.53;;
8538;SDS011;4307;53.868;11.680;2023-11-19T02:42:15;14.93;;;8.67;;
8538;SDS011;4307;53.868;11.680;2023-11-19T02:44:43;9.07;;;6.47;;
8538;SDS011;4307;53.868;11.680;2023-11-19T02:47:11;11.00;;;7.30;;
8538;SDS011;4307;53.868;11.680;2023-11-19T02:49:38;14.83;;;9.50;;
8538;SDS011;4307;53.868;11.680;2023-11-19T02:52:05;12.70;;;8.30;;
8538;SDS011;4307;53.868;11.680;2023-11-19T02:54:33;11.33;;;7.47;;
8538;SDS011;4307;53.868;11.680;2023-11-19T02:57:00;11.67;;;8.00;;
8538;SDS011;4307;53.868;11.680;2023-11-19T02:59:29;8.63;;;5.60;;
8538;SDS011;4307;53.868;11.680;2023-11-19T03:02:03;12.00;;;7.90;;
8538;SDS011;4307;53.868;11.680;2023-11-19T03:04:32;10.40;;;5.67;;
8538;SDS011;4307;53.868;11.680;2023-11-19T03:06:59;12.93;;;8.50;;
8538;SDS011;4307;53.868;11.680;2023-11-19T03:09:26;12.27;;;7.47;;
8538;SDS011;4307;53.868;11.680;2023-11-19T03:11:54;13.53;;;8.53;;
8538;SDS011;4307;53.868;11.680;2023-11-19T03:14:21;10.63;;;7.63;;
8538;SDS011;4307;53.868;11.680;2023-11-19T03:16:48;13.37;;;8.10;;
8538;SDS011;4307;53.868;11.680;2023-11-19T03:19:14;15.87;;;7.97;;
8538;SDS011;4307;53.868;11.680;2023-11-19T03:21:42;13.90;;;7.37;;
8538;SDS011;4307;53.868;11.680;2023-11-19T03:24:09;10.07;;;7.00;;
8538;SDS011;4307;53.868;11.680;2023-11-19T03:26:36;13.83;;;7.70;;
8538;SDS011;4307;53.868;11.680;2023-11-19T03:29:03;0.30;;;0.30;;
8538;SDS011;4307;53.868;11.680;2023-11-19T03:31:30;0.00;;;0.00;;
8538;SDS011;4307;53.868;11.680;2023-11-19T03:33:56;0.00;;;0.00;;
8538;SDS011;4307;53.868;11.680;2023-11-19T03:36:23;0.00;;;0.00;;
8538;SDS011;4307;53.868;11.680;2023-11-19T03:38:51;0.00;;;0.00;;
8538;SDS011;4307;53.868;11.680;2023-11-19T03:41:18;0.00;;;0.00;;
8538;SDS011;4307;53.868;11.680;2023-11-19T03:43:46;0.00;;;0.00;;
8538;SDS011;4307;53.868;11.680;2023-11-19T03:46:16;0.00;;;0.00;;
8538;SDS011;4307;53.868;11.680;2023-11-19T03:48:44;0.00;;;0.00;;
8538;SDS011;4307;53.868;11.680;2023-11-19T03:51:11;0.00;;;0.00;;
8538;SDS011;4307;53.868;11.680;2023-11-19T03:53:40;0.00;;;0.00;;
8538;SDS011;4307;53.868;11.680;2023-11-19T03:56:09;0.00;;;0.00;;
8538;SDS011;4307;53.868;11.680;2023-11-19T03:58:36;0.00;;;0.00;;
8538;SDS011;4307;53.868;11.680;2023-11-19T04:01:04;0.00;;;0.00;;
8538;SDS011;4307;53.868;11.680;2023-11-19T04:03:30;0.00;;;0.00;;
8538;SDS011;4307;53.868;11.680;2023-11-19T04:05:58;0.00;;;0.00;;
8538;SDS011;4307;53.868;11.680;2023-11-19T04:08:24;0.00;;;0.00;;
8538;SDS011;4307;53.868;11.680;2023-11-19T04:10:51;0.00;;;0.00;;
8538;SDS011;4307;53.868;11.680;2023-11-19T04:13:19;0.00;;;0.00;;
8538;SDS011;4307;53.868;11.680;2023-11-19T04:15:46;0.00;;;0.00;;
8538;SDS011;4307;53.868;11.680;2023-11-19T04:18:12;0.00;;;0.00;;
8538;SDS011;4307;53.868;11.680;2023-11-19T04:20:39;0.00;;;0.00;;
8538;SDS011;4307;53.868;11.680;2023-11-19T04:23:07;0.00;;;0.00;;
8538;SDS011;4307;53.868;11.680;2023-11-19T04:25:34;0.00;;;0.00;;
8538;SDS011;4307;53.868;11.680;2023-11-19T04:28:01;0.00;;;0.00;;
8538;SDS011;4307;53.868;11.680;2023-11-19T04:30:29;0.00;;;0.00;;
8538;SDS011;4307;53.868;11.680;2023-11-19T04:32:56;0.00;;;0.00;;
8538;SDS011;4307;53.868;11.680;2023-11-19T04:35:23;0.00;;;0.00;;
8538;SDS011;4307;53.868;11.680;2023-11-19T04:37:51;0.00;;;0.00;;
8538;SDS011;4307;53.868;11.680;2023-11-19T04:40:17;0.00;;;0.00;;
8538;SDS011;4307;53.868;11.680;2023-11-19T04:42:44;0.00;;;0.00;;
8538;SDS011;4307;53.868;11.680;2023-11-19T04:45:11;0.00;;;0.00;;
8538;SDS011;4307;53.868;11.680;2023-11-19T04:47:39;0.00;;;0.00;;
8538;SDS011;4307;53.868;11.680;2023-11-19T04:50:06;0.53;;;0.53;;
8538;SDS011;4307;53.868;11.680;2023-11-19T04:52:36;0.00;;;0.00;;
8538;SDS011;4307;53.868;11.680;2023-11-19T04:55:05;0.00;;;0.00;;
8538;SDS011;4307;53.868;11.680;2023-11-19T04:57:32;0.00;;;0.00;;
8538;SDS011;4307;53.868;11.680;2023-11-19T04:59:59;0.00;;;0.00;;
8538;SDS011;4307;53.868;11.680;2023-11-19T05:02:25;0.00;;;0.00;;
8538;SDS011;4307;53.868;11.680;2023-11-19T05:04:53;0.00;;;0.00;;
8538;SDS011;4307;53.868;11.680;2023-11-19T05:07:20;0.00;;;0.00;;
8538;SDS011;4307;53.868;11.680;2023-11-19T05:09:46;0.00;;;0.00;;
8538;SDS011;4307;53.868;11.680;2023-11-19T05:12:13;0.00;;;0.00;;
8538;SDS011;4307;53.868;11.680;2023-11-19T05:14:40;0.00;;;0.00;;
8538;SDS011;4307;53.868;11.680;2023-11-19T05:17:13;0.00;;;0.00;;
8538;SDS011;4307;53.868;11.680;2023-11-19T05:19:39;0.00;;;0.00;;
8538;SDS011;4307;53.868;11.680;2023-11-19T05:22:07;0.00;;;0.00;;
8538;SDS011;4307;53.868;11.680;2023-11-19T05:24:34;0.00;;;0.00;;
8538;SDS011;4307;53.868;11.680;2023-11-19T05:27:00;0.00;;;0.00;;
8538;SDS011;4307;53.868;11.680;2023-11-19T05:29:27;0.00;;;0.00;;
8538;SDS011;4307;53.868;11.680;2023-11-19T05:31:54;0.00;;;0.00;;
8538;SDS011;4307;53.868;11.680;2023-11-19T05:34:21;0.00;;;0.00;;
8538;SDS011;4307;53.868;11.680;2023-11-19T05:36:47;0.00;;;0.00;;
8538;SDS011;4307;53.868;11.680;2023-11-19T05:39:16;0.00;;;0.00;;
8538;SDS011;4307;53.868;11.680;2023-11-19T05:41:43;0.00;;;0.00;;
8538;SDS011;4307;53.868;11.680;2023-11-19T05:44:10;0.00;;;0.00;;
8538;SDS011;4307;53.868;11.680;2023-11-19T05:46:36;0.00;;;0.00;;
8538;SDS011;4307;53.868;11.680;2023-11-19T05:49:07;0.00;;;0.00;;
8538;SDS011;4307;53.868;11.680;2023-11-19T05:51:36;0.00;;;0.00;;
8538;SDS011;4307;53.868;11.680;2023-11-19T05:54:03;0.00;;;0.00;;
8538;SDS011;4307;53.868;11.680;2023-11-19T05:56:33;0.00;;;0.00;;
8538;SDS011;4307;53.868;11.680;2023-11-19T05:58:59;0.00;;;0.00;;
8538;SDS011;4307;53.868;11.680;2023-11-19T06:01:28;0.00;;;0.00;;
8538;SDS011;4307;53.868;11.680;2023-11-19T06:03:55;0.00;;;0.00;;
8538;SDS011;4307;53.868;11.680;2023-11-19T06:06:22;0.00;;;0.00;;
8538;SDS011;4307;53.868;11.680;2023-11-19T06:08:49;0.00;;;0.00;;
8538;SDS011;4307;53.868;11.680;2023-11-19T06:11:15;0.00;;;0.00;;
8538;SDS011;4307;53.868;11.680;2023-11-19T06:13:46;0.00;;;0.00;;
8538;SDS011;4307;53.868;11.680;2023-11-19T06:16:16;0.00;;;0.00;;
8538;SDS011;4307;53.868;11.680;2023-11-19T06:18:42;0.00;;;0.00;;
8538;SDS011;4307;53.868;11.680;2023-11-19T06:21:09;0.00;;;0.00;;
8538;SDS011;4307;53.868;11.680;2023-11-19T06:23:36;0.00;;;0.00;;
8538;SDS011;4307;53.868;11.680;2023-11-19T06:26:03;0.00;;;0.00;;
8538;SDS011;4307;53.868;11.680;2023-11-19T06:28:30;0.00;;;0.00;;
8538;SDS011;4307;53.868;11.680;2023-11-19T06:30:58;0.00;;;0.00;;
8538;SDS011;4307;53.868;11.680;2023-11-19T06:33:25;0.00;;;0.00;;
8538;SDS011;4307;53.868;11.680;2023-11-19T06:35:52;0.00;;;0.00;;
8538;SDS011;4307;53.868;11.680;2023-11-19T06:38:19;0.00;;;0.00;;
8538;SDS011;4307;53.868;11.680;2023-11-19T06:40:46;0.00;;;0.00;;
8538;SDS011;4307;53.868;11.680;2023-11-19T06:43:12;0.00;;;0.00;;
8538;SDS011;4307;53.868;11.680;2023-11-19T06:45:40;0.00;;;0.00;;
8538;SDS011;4307;53.868;11.680;2023-11-19T06:48:08;0.00;;;0.00;;
8538;SDS011;4307;53.868;11.680;2023-11-19T06:50:35;0.00;;;0.00;;
8538;SDS011;4307;53.868;11.680;2023-11-19T06:53:02;0.00;;;0.00;;
8538;SDS011;4307;53.868;11.680;2023-11-19T06:55:30;0.00;;;0.00;;
8538;SDS011;4307;53.868;11.680;2023-11-19T06:57:57;0.00;;;0.00;;
8538;SDS011;4307;53.868;11.680;2023-11-19T07:00:27;0.00;;;0.00;;
8538;SDS011;4307;53.868;11.680;2023-11-19T07:02:54;0.00;;;0.00;;
8538;SDS011;4307;53.868;11.680;2023-11-19T07:05:22;0.00;;;0.00;;
8538;SDS011;4307;53.868;11.680;2023-11-19T07:07:49;0.00;;;0.00;;
8538;SDS011;4307;53.868;11.680;2023-11-19T07:10:15;0.00;;;0.00;;
8538;SDS011;4307;53.868;11.680;2023-11-19T07:12:42;0.00;;;0.00;;
8538;SDS011;4307;53.868;11.680;2023-11-19T07:15:09;0.00;;;0.00;;
8538;SDS011;4307;53.868;11.680;2023-11-19T07:17:38;0.00;;;0.00;;
8538;SDS011;4307;53.868;11.680;2023-11-19T07:20:06;0.00;;;0.00;;
8538;SDS011;4307;53.868;11.680;2023-11-19T07:22:34;0.00;;;0.00;;
8538;SDS011;4307;53.868;11.680;2023-11-19T07:25:03;0.00;;;0.00;;
8538;SDS011;4307;53.868;11.680;2023-11-19T07:27:31;0.00;;;0.00;;
8538;SDS011;4307;53.868;11.680;2023-11-19T07:29:57;0.00;;;0.00;;
8538;SDS011;4307;53.868;11.680;2023-11-19T07:32:24;0.00;;;0.00;;
8538;SDS011;4307;53.868;11.680;2023-11-19T07:34:50;0.00;;;0.00;;
8538;SDS011;4307;53.868;11.680;2023-11-19T07:37:17;0.00;;;0.00;;
8538;SDS011;4307;53.868;11.680;2023-11-19T07:39:45;0.00;;;0.00;;
8538;SDS011;4307;53.868;11.680;2023-11-19T07:42:12;0.00;;;0.00;;
8538;SDS011;4307;53.868;11.680;2023-11-19T07:44:38;0.00;;;0.00;;
8538;SDS011;4307;53.868;11.680;2023-11-19T07:47:05;0.00;;;0.00;;
8538;SDS011;4307;53.868;11.680;2023-11-19T07:49:31;0.00;;;0.00;;
8538;SDS011;4307;53.868;11.680;2023-11-19T07:51:58;0.00;;;0.00;;
8538;SDS011;4307;53.868;11.680;2023-11-19T07:54:25;0.00;;;0.00;;
8538;SDS011;4307;53.868;11.680;2023-11-19T07:56:53;0.00;;;0.00;;
8538;SDS011;4307;53.868;11.680;2023-11-19T07:59:20;0.00;;;0.00;;
8538;SDS011;4307;53.868;11.680;2023-11-19T08:01:47;0.00;;;0.00;;
8538;SDS011;4307;53.868;11.680;2023-11-19T08:04:13;0.00;;;0.00;;
8538;SDS011;4307;53.868;11.680;2023-11-19T08:06:40;0.00;;;0.00;;
8538;SDS011;4307;53.868;11.680;2023-11-19T08:09:07;0.00;;;0.00;;
8538;SDS011;4307;53.868;11.680;2023-11-19T08:11:38;0.00;;;0.00;;
8538;SDS011;4307;53.868;11.680;2023-11-19T08:14:06;0.00;;;0.00;;
8538;SDS011;4307;53.868;11.680;2023-11-19T08:16:33;0.00;;;0.00;;
8538;SDS011;4307;53.868;11.680;2023-11-19T08:19:00;0.00;;;0.00;;
8538;SDS011;4307;53.868;11.680;2023-11-19T08:21:26;0.00;;;0.00;;
8538;SDS011;4307;53.868;11.680;2023-11-19T08:23:53;0.00;;;0.00;;
8538;SDS011;4307;53.868;11.680;2023-11-19T08:26:20;0.00;;;0.00;;
8538;SDS011;4307;53.868;11.680;2023-11-19T08:28:46;0.00;;;0.00;;
8538;SDS011;4307;53.868;11.680;2023-11-19T08:31:14;0.00;;;0.00;;
8538;SDS011;4307;53.868;11.680;2023-11-19T08:33:41;0.00;;;0.00;;
8538;SDS011;4307;53.868;11.680;2023-11-19T08:36:08;0.00;;;0.00;;
8538;SDS011;4307;53.868;11.680;2023-11-19T08:38:40;0.00;;;0.00;;
8538;SDS011;4307;53.868;11.680;2023-11-19T08:41:07;0.00;;;0.00;;
8538;SDS011;4307;53.868;11.680;2023-11-19T08:43:34;0.00;;;0.00;;
8538;SDS011;4307;53.868;11.680;2023-11-19T08:46:00;0.00;;;0.00;;
8538;SDS011;4307;53.868;11.680;2023-11-19T08:48:28;0.00;;;0.00;;
8538;SDS011;4307;53.868;11.680;2023-11-19T08:50:55;0.00;;;0.00;;
8538;SDS011;4307;53.868;11.680;2023-11-19T08:53:22;0.00;;;0.00;;
8538;SDS011;4307;53.868;11.680;2023-11-19T08:55:48;0.00;;;0.00;;
8538;SDS011;4307;53.868;11.680;2023-11-19T08:58:15;0.00;;;0.00;;
8538;SDS011;4307;53.868;11.680;2023-11-19T09:00:43;0.00;;;0.00;;
8538;SDS011;4307;53.868;11.680;2023-11-19T09:03:09;0.00;;;0.00;;
8538;SDS011;4307;53.868;11.680;2023-11-19T09:05:37;0.13;;;0.13;;
8538;SDS011;4307;53.868;11.680;2023-11-19T09:08:04;0.00;;;0.00;;
8538;SDS011;4307;53.868;11.680;2023-11-19T09:10:31;0.00;;;0.00;;
8538;SDS011;4307;53.868;11.680;2023-11-19T09:12:58;0.00;;;0.00;;
8538;SDS011;4307;53.868;11.680;2023-11-19T09:15:24;0.00;;;0.00;;
8538;SDS011;4307;53.868;11.680;2023-11-19T09:17:51;0.00;;;0.00;;
8538;SDS011;4307;53.868;11.680;2023-11-19T09:20:17;0.00;;;0.00;;
8538;SDS011;4307;53.868;11.680;2023-11-19T09:22:45;0.00;;;0.00;;
8538;SDS011;4307;53.868;11.680;2023-11-19T09:25:12;0.00;;;0.00;;
8538;SDS011;4307;53.868;11.680;2023-11-19T09:27:41;0.00;;;0.00;;
8538;SDS011;4307;53.868;11.680;2023-11-19T09:30:08;0.00;;;0.00;;
8538;SDS011;4307;53.868;11.680;2023-11-19T09:32:36;0.00;;;0.00;;
8538;SDS011;4307;53.868;11.680;2023-11-19T09:35:03;0.00;;;0.00;;
8538;SDS011;4307;53.868;11.680;2023-11-19T09:37:31;0.00;;;0.00;;
8538;SDS011;4307;53.868;11.680;2023-11-19T09:39:59;0.00;;;0.00;;
8538;SDS011;4307;53.868;11.680;2023-11-19T09:42:26;0.00;;;0.00;;
8538;SDS011;4307;53.868;11.680;2023-11-19T09:44:53;0.00;;;0.00;;
8538;SDS011;4307;53.868;11.680;2023-11-19T09:47:22;0.00;;;0.00;;
8538;SDS011;4307;53.868;11.680;2023-11-19T09:49:52;0.00;;;0.00;;
8538;SDS011;4307;53.868;11.680;2023-11-19T09:52:19;0.00;;;0.00;;
8538;SDS011;4307;53.868;11.680;2023-11-19T09:54:46;0.00;;;0.00;;
8538;SDS011;4307;53.868;11.680;2023-11-19T09:57:14;0.00;;;0.00;;
8538;SDS011;4307;53.868;11.680;2023-11-19T09:59:42;0.00;;;0.00;;
8538;SDS011;4307;53.868;11.680;2023-11-19T10:02:12;0.00;;;0.00;;
8538;SDS011;4307;53.868;11.680;2023-11-19T10:04:40;0.00;;;0.00;;
8538;SDS011;4307;53.868;11.680;2023-11-19T10:07:08;0.00;;;0.00;;
8538;SDS011;4307;53.868;11.680;2023-11-19T10:09:35;0.00;;;0.00;;
8538;SDS011;4307;53.868;11.680;2023-11-19T10:12:02;0.00;;;0.00;;
8538;SDS011;4307;53.868;11.680;2023-11-19T10:14:30;0.00;;;0.00;;
8538;SDS011;4307;53.868;11.680;2023-11-19T10:16:58;0.00;;;0.00;;
8538;SDS011;4307;53.868;11.680;2023-11-19T10:19:29;0.00;;;0.00;;
8538;SDS011;4307;53.868;11.680;2023-11-19T10:21:55;0.00;;;0.00;;
8538;SDS011;4307;53.868;11.680;2023-11-19T10:24:31;0.00;;;0.00;;
8538;SDS011;4307;53.868;11.680;2023-11-19T10:26:58;0.00;;;0.00;;
8538;SDS011;4307;53.868;11.680;2023-11-19T10:29:25;0.00;;;0.00;;
8538;SDS011;4307;53.868;11.680;2023-11-19T10:31:58;0.00;;;0.00;;
8538;SDS011;4307;53.868;11.680;2023-11-19T10:34:25;0.00;;;0.00;;
8538;SDS011;4307;53.868;11.680;2023-11-19T10:36:52;0.00;;;0.00;;
8538;SDS011;4307;53.868;11.680;2023-11-19T10:39:19;0.00;;;0.00;;
8538;SDS011;4307;53.868;11.680;2023-11-19T10:41:48;0.00;;;0.00;;
8538;SDS011;4307;53.868;11.680;2023-11-19T10:47:02;0.00;;;0.00;;
8538;SDS011;4307;53.868;11.680;2023-11-19T10:49:32;0.00;;;0.00;;
8538;SDS011;4307;53.868;11.680;2023-11-19T10:52:00;0.00;;;0.00;;
8538;SDS011;4307;53.868;11.680;2023-11-19T10:54:27;0.00;;;0.00;;
8538;SDS011;4307;53.868;11.680;2023-11-19T10:56:58;0.00;;;0.00;;
8538;SDS011;4307;53.868;11.680;2023-11-19T10:59:26;0.00;;;0.00;;
8538;SDS011;4307;53.868;11.680;2023-11-19T11:01:56;0.00;;;0.00;;
8538;SDS011;4307;53.868;11.680;2023-11-19T11:04:25;0.00;;;0.00;;
8538;SDS011;4307;53.868;11.680;2023-11-19T11:06:54;0.00;;;0.00;;
8538;SDS011;4307;53.868;11.680;2023-11-19T11:09:23;0.00;;;0.00;;
8538;SDS011;4307;53.868;11.680;2023-11-19T11:11:52;0.00;;;0.00;;
8538;SDS011;4307;53.868;11.680;2023-11-19T11:14:22;0.00;;;0.00;;
8538;SDS011;4307;53.868;11.680;2023-11-19T11:16:51;0.00;;;0.00;;
8538;SDS011;4307;53.868;11.680;2023-11-19T11:19:19;0.00;;;0.00;;
8538;SDS011;4307;53.868;11.680;2023-11-19T11:21:49;0.87;;;0.87;;
8538;SDS011;4307;53.868;11.680;2023-11-19T11:24:29;0.00;;;0.00;;
8538;SDS011;4307;53.868;11.680;2023-11-19T11:27:16;0.00;;;0.00;;
8538;SDS011;4307;53.868;11.680;2023-11-19T11:30:05;0.00;;;0.00;;
8538;SDS011;4307;53.868;11.680;2023-11-19T11:32:40;0.00;;;0.00;;
8538;SDS011;4307;53.868;11.680;2023-11-19T11:37:59;0.00;;;0.00;;
8538;SDS011;4307;53.868;11.680;2023-11-19T11:40:28;23.23;;;3.23;;
8538;SDS011;4307;53.868;11.680;2023-11-19T11:42:56;25.07;;;4.67;;
8538;SDS011;4307;53.868;11.680;2023-11-19T11:45:34;21.03;;;4.77;;
8538;SDS011;4307;53.868;11.680;2023-11-19T11:48:12;30.47;;;4.97;;
8538;SDS011;4307;53.868;11.680;2023-11-19T11:50:50;22.13;;;5.57;;
8538;SDS011;4307;53.868;11.680;2023-11-19T11:53:21;30.57;;;5.23;;
8538;SDS011;4307;53.868;11.680;2023-11-19T11:55:53;26.27;;;5.63;;
8538;SDS011;4307;53.868;11.680;2023-11-19T11:58:25;33.80;;;5.83;;
8538;SDS011;4307;53.868;11.680;2023-11-19T12:00:56;31.80;;;5.83;;
8538;SDS011;4307;53.868;11.680;2023-11-19T12:03:26;21.33;;;5.00;;
8538;SDS011;4307;53.868;11.680;2023-11-19T12:05:53;34.03;;;5.00;;
8538;SDS011;4307;53.868;11.680;2023-11-19T12:08:24;30.13;;;4.60;;
8538;SDS011;4307;53.868;11.680;2023-11-19T12:10:52;18.70;;;4.33;;
8538;SDS011;4307;53.868;11.680;2023-11-19T12:13:20;24.17;;;4.93;;
8538;SDS011;4307;53.868;11.680;2023-11-19T12:18:33;21.73;;;4.10;;
8538;SDS011;4307;53.868;11.680;2023-11-19T12:21:00;25.90;;;3.93;;
8538;SDS011;4307;53.868;11.680;2023-11-19T12:23:29;32.43;;;6.93;;
8538;SDS011;4307;53.868;11.680;2023-11-19T12:25:57;20.33;;;4.77;;
8538;SDS011;4307;53.868;11.680;2023-11-19T12:28:24;25.63;;;6.27;;
8538;SDS011;4307;53.868;11.680;2023-11-19T12:30:51;32.97;;;4.90;;
8538;SDS011;4307;53.868;11.680;2023-11-19T12:33:18;16.33;;;4.17;;
8538;SDS011;4307;53.868;11.680;2023-11-19T12:35:46;19.77;;;4.60;;
8538;SDS011;4307;53.868;11.680;2023-11-19T12:38:20;25.77;;;4.33;;
8538;SDS011;4307;53.868;11.680;2023-11-19T12:40:49;27.43;;;4.50;;
8538;SDS011;4307;53.868;11.680;2023-11-19T12:43:28;20.43;;;4.20;;
8538;SDS011;4307;53.868;11.680;2023-11-19T12:45:55;24.83;;;4.17;;
8538;SDS011;4307;53.868;11.680;2023-11-19T12:48:22;20.73;;;3.70;;
8538;SDS011;4307;53.868;11.680;2023-11-19T12:50:51;16.80;;;4.13;;
8538;SDS011;4307;53.868;11.680;2023-11-19T12:53:19;25.50;;;4.33;;
8538;SDS011;4307;53.868;11.680;2023-11-19T12:55:46;24.23;;;5.00;;
8538;SDS011;4307;53.868;11.680;2023-11-19T13:01:06;23.53;;;5.77;;
8538;SDS011;4307;53.868;11.680;2023-11-19T13:03:35;34.30;;;5.43;;
8538;SDS011;4307;53.868;11.680;2023-11-19T13:06:04;21.30;;;5.73;;
8538;SDS011;4307;53.868;11.680;2023-11-19T13:08:35;24.87;;;5.50;;
8538;SDS011;4307;53.868;11.680;2023-11-19T13:11:04;21.67;;;5.50;;
8538;SDS011;4307;53.868;11.680;2023-11-19T13:13:31;22.07;;;4.30;;
8538;SDS011;4307;53.868;11.680;2023-11-19T13:16:01;24.73;;;5.70;;
8538;SDS011;4307;53.868;11.680;2023-11-19T13:18:31;27.60;;;5.03;;
8538;SDS011;4307;53.868;11.680;2023-11-19T13:20:58;18.80;;;4.10;;
8538;SDS011;4307;53.868;11.680;2023-11-19T13:23:25;17.70;;;4.27;;
8538;SDS011;4307;53.868;11.680;2023-11-19T13:25:51;14.67;;;3.60;;
8538;SDS011;4307;53.868;11.680;2023-11-19T13:28:18;14.40;;;3.20;;
8538;SDS011;4307;53.868;11.680;2023-11-19T13:30:45;17.23;;;3.77;;
8538;SDS011;4307;53.868;11.680;2023-11-19T13:33:11;13.90;;;4.07;;
8538;SDS011;4307;53.868;11.680;2023-11-19T13:35:39;19.33;;;4.07;;
8538;SDS011;4307;53.868;11.680;2023-11-19T13:38:06;21.43;;;4.27;;
8538;SDS011;4307;53.868;11.680;2023-11-19T13:40:34;21.40;;;3.90;;
8538;SDS011;4307;53.868;11.680;2023-11-19T13:43:00;20.80;;;4.13;;
8538;SDS011;4307;53.868;11.680;2023-11-19T13:45:27;22.73;;;4.07;;
8538;SDS011;4307;53.868;11.680;2023-11-19T13:47:54;18.50;;;3.97;;
8538;SDS011;4307;53.868;11.680;2023-11-19T13:50:20;21.13;;;4.60;;
8538;SDS011;4307;53.868;11.680;2023-11-19T13:52:49;24.80;;;4.73;;
8538;SDS011;4307;53.868;11.680;2023-11-19T13:55:16;31.63;;;4.17;;
8538;SDS011;4307;53.868;11.680;2023-11-19T13:57:43;16.90;;;4.77;;
8538;SDS011;4307;53.868;11.680;2023-11-19T14:00:11;18.93;;;4.23;;
8538;SDS011;4307;53.868;11.680;2023-11-19T14:02:40;21.90;;;4.17;;
8538;SDS011;4307;53.868;11.680;2023-11-19T14:05:08;21.13;;;4.73;;
8538;SDS011;4307;53.868;11.680;2023-11-19T14:07:36;17.87;;;4.37;;
8538;SDS011;4307;53.868;11.680;2023-11-19T14:10:04;25.40;;;4.13;;
8538;SDS011;4307;53.868;11.680;2023-11-19T14:12:34;21.17;;;4.50;;
8538;SDS011;4307;53.868;11.680;2023-11-19T14:15:01;22.53;;;5.17;;
8538;SDS011;4307;53.868;11.680;2023-11-19T14:17:29;16.70;;;4.27;;
8538;SDS011;4307;53.868;11.680;2023-11-19T14:19:55;24.87;;;4.30;;
8538;SDS011;4307;53.868;11.680;2023-11-19T14:22:22;18.77;;;4.17;;
8538;SDS011;4307;53.868;11.680;2023-11-19T14:24:49;25.43;;;4.83;;
8538;SDS011;4307;53.868;11.680;2023-11-19T14:27:17;29.47;;;5.70;;
8538;SDS011;4307;53.868;11.680;2023-11-19T14:29:44;21.37;;;3.83;;
8538;SDS011;4307;53.868;11.680;2023-11-19T14:32:11;17.90;;;3.73;;
8538;SDS011;4307;53.868;11.680;2023-11-19T14:34:38;24.00;;;4.10;;
8538;SDS011;4307;53.868;11.680;2023-11-19T14:37:04;26.83;;;4.57;;
8538;SDS011;4307;53.868;11.680;2023-11-19T14:39:31;21.07;;;4.00;;
8538;SDS011;4307;53.868;11.680;2023-11-19T14:41:58;21.23;;;4.33;;
8538;SDS011;4307;53.868;11.680;2023-11-19T14:44:30;22.23;;;4.57;;
8538;SDS011;4307;53.868;11.680;2023-11-19T14:46:57;14.90;;;3.90;;
8538;SDS011;4307;53.868;11.680;2023-11-19T14:49:24;22.93;;;4.50;;
8538;SDS011;4307;53.868;11.680;2023-11-19T14:51:52;23.33;;;4.30;;
8538;SDS011;4307;53.868;11.680;2023-11-19T14:54:18;20.27;;;4.90;;
8538;SDS011;4307;53.868;11.680;2023-11-19T14:56:45;22.07;;;4.17;;
8538;SDS011;4307;53.868;11.680;2023-11-19T14:59:11;22.53;;;4.80;;
8538;SDS011;4307;53.868;11.680;2023-11-19T15:01:38;20.53;;;4.37;;
8538;SDS011;4307;53.868;11.680;2023-11-19T15:04:06;17.60;;;5.00;;
8538;SDS011;4307;53.868;11.680;2023-11-19T15:06:32;22.77;;;5.10;;
8538;SDS011;4307;53.868;11.680;2023-11-19T15:08:59;25.30;;;3.90;;
8538;SDS011;4307;53.868;11.680;2023-11-19T15:11:25;26.40;;;5.10;;
8538;SDS011;4307;53.868;11.680;2023-11-19T15:13:52;24.13;;;4.70;;